createdAt,value
2023-05-03T00:01:45.250Z,81.44
2023-05-03T00:04:15.805Z,82.16
2023-05-03T00:06:45.758Z,81.63
2023-05-03T00:09:12.771Z,82.40
2023-05-03T00:11:39.783Z,82.98
2023-05-03T00:14:06.612Z,81.27
2023-05-03T00:16:33.546Z,80.64
2023-05-03T00:19:00.354Z,81.49
2023-05-03T00:21:27.297Z,82.59
2023-05-03T00:23:54.447Z,82.29
2023-05-03T00:26:21.587Z,82.98
2023-05-03T00:28:48.819Z,83.45
2023-05-03T00:31:15.760Z,84.68
2023-05-03T00:33:42.829Z,86.54
2023-05-03T00:36:15.136Z,87.72
2023-05-03T00:38:43.170Z,88.26
2023-05-03T00:41:11.074Z,86.61
2023-05-03T00:43:38.185Z,85.74
2023-05-03T00:46:16.719Z,86.86
2023-05-03T00:48:51.524Z,87.63
2023-05-03T00:51:20.740Z,88.09
2023-05-03T00:53:47.719Z,87.09
2023-05-03T00:56:23.809Z,87.44
2023-05-03T00:58:54.279Z,86.52
2023-05-03T01:01:21.569Z,87.11
2023-05-03T01:03:50.850Z,87.58
2023-05-03T01:06:36.491Z,87.68
2023-05-03T01:09:13.015Z,87.87
2023-05-03T01:11:54.830Z,86.92
2023-05-03T01:14:47.115Z,86.24
2023-05-03T01:17:15.626Z,84.90
2023-05-03T01:19:57.573Z,86.75
2023-05-03T01:22:39.203Z,87.02
2023-05-03T01:25:11.488Z,87.30
2023-05-03T01:27:39.654Z,87.71
2023-05-03T01:30:08.840Z,87.34
2023-05-03T01:32:35.751Z,87.29
2023-05-03T01:35:28.270Z,86.80
2023-05-03T01:37:57.500Z,87.24
2023-05-03T01:40:27.016Z,86.28
2023-05-03T01:42:55.733Z,86.18
2023-05-03T01:45:23.208Z,86.62
2023-05-03T01:47:50.137Z,84.97
2023-05-03T01:50:17.252Z,85.74
2023-05-03T01:52:45.292Z,86.93
2023-05-03T01:55:12.380Z,89.04
2023-05-03T01:57:39.173Z,89.64
2023-05-03T02:00:07.180Z,89.76
2023-05-03T02:02:39.484Z,90.35
2023-05-03T02:05:06.895Z,89.37
2023-05-03T02:07:34.045Z,89.67
2023-05-03T02:10:01.573Z,87.70
2023-05-03T02:12:28.620Z,87.02
2023-05-03T02:14:55.799Z,86.37
2023-05-03T02:17:26.520Z,87.57
2023-05-03T02:19:53.835Z,89.33
2023-05-03T02:22:20.844Z,89.73
2023-05-03T02:24:47.968Z,90.39
2023-05-03T02:27:15.801Z,89.77
2023-05-03T02:29:45.007Z,91.09
2023-05-03T02:32:12.598Z,91.09
2023-05-03T02:34:39.764Z,91.54
2023-05-03T02:37:08.479Z,91.91
2023-05-03T02:39:35.559Z,91.46
2023-05-03T02:42:03.685Z,91.75
2023-05-03T02:44:32.433Z,91.47
2023-05-03T02:47:00.526Z,91.45
2023-05-03T02:49:27.521Z,90.68
2023-05-03T02:51:54.376Z,89.88
2023-05-03T02:54:21.486Z,89.82
2023-05-03T02:56:48.549Z,89.49
2023-05-03T02:59:15.763Z,90.43
2023-05-03T03:01:43.015Z,90.72
2023-05-03T03:04:11.021Z,91.68
2023-05-03T03:06:38.139Z,92.14
2023-05-03T03:09:06.118Z,93.04
2023-05-03T03:11:35.231Z,93.59
2023-05-03T03:14:02.146Z,93.80
2023-05-03T03:16:29.227Z,94.54
2023-05-03T03:18:56.703Z,95.05
2023-05-03T03:21:23.528Z,96.97
2023-05-03T03:23:50.510Z,97.83
2023-05-03T03:26:18.976Z,98.99
2023-05-03T03:28:46.498Z,98.22
2023-05-03T03:31:14.149Z,99.27
2023-05-03T03:33:42.550Z,99.31
2023-05-03T03:36:14.704Z,98.04
2023-05-03T03:38:44.359Z,97.30
2023-05-03T03:41:11.884Z,98.11
2023-05-03T03:43:39.021Z,98.30
2023-05-03T03:46:11.215Z,99.05
2023-05-03T03:48:38.901Z,99.45
2023-05-03T03:51:06.055Z,99.95
2023-05-03T03:53:39.251Z,98.91
2023-05-03T03:56:06.591Z,98.53
2023-05-03T03:58:34.094Z,98.53
2023-05-03T04:01:03.195Z,98.82
2023-05-03T04:03:30.751Z,99.17
2023-05-03T04:05:58.354Z,100.00
2023-05-03T04:08:26.708Z,99.23
2023-05-03T04:10:53.797Z,98.74
2023-05-03T04:13:21.412Z,99.25
2023-05-03T04:15:55.077Z,99.13
2023-05-03T04:18:23.008Z,99.42
2023-05-03T04:20:51.777Z,99.47
2023-05-03T04:23:19.083Z,99.79
2023-05-03T04:25:46.797Z,99.79
2023-05-03T04:28:15.477Z,100.00
2023-05-03T04:30:47.466Z,100.00
2023-05-03T04:33:18.236Z,100.00
2023-05-03T04:35:49.525Z,100.00
2023-05-03T04:38:18.798Z,100.00
2023-05-03T04:40:46.657Z,100.00
2023-05-03T04:43:13.785Z,98.91
2023-05-03T04:45:44.934Z,98.80
2023-05-03T04:48:18.462Z,98.62
2023-05-03T04:50:45.818Z,98.99
2023-05-03T04:53:14.875Z,98.28
2023-05-03T04:55:44.905Z,97.86
2023-05-03T04:58:11.849Z,97.25
2023-05-03T05:00:42.148Z,95.99
2023-05-03T05:03:15.205Z,95.94
2023-05-03T05:05:43.518Z,95.47
2023-05-03T05:08:12.067Z,95.03
2023-05-03T05:10:45.010Z,94.65
2023-05-03T05:13:16.351Z,93.96
2023-05-03T05:15:43.301Z,93.07
2023-05-03T05:18:12.613Z,91.06
2023-05-03T05:20:40.692Z,88.75
2023-05-03T05:23:08.186Z,87.97
2023-05-03T05:25:35.834Z,84.79
2023-05-03T05:28:03.992Z,83.50
2023-05-03T05:30:31.593Z,82.85
2023-05-03T05:32:59.235Z,81.44
2023-05-03T05:35:26.357Z,80.49
2023-05-03T05:37:53.223Z,81.17
2023-05-03T05:40:20.465Z,81.09
2023-05-03T05:42:52.848Z,80.48
2023-05-03T05:45:21.828Z,81.42
2023-05-03T05:47:51.425Z,81.91
2023-05-03T05:50:19.451Z,81.82
2023-05-03T05:52:53.280Z,81.81
2023-05-03T05:55:21.395Z,82.02
2023-05-03T05:57:50.139Z,80.03
2023-05-03T06:00:21.186Z,78.71
2023-05-03T06:02:49.003Z,76.55
2023-05-03T06:05:21.013Z,74.90
2023-05-03T06:07:48.798Z,73.78
2023-05-03T06:10:16.280Z,72.21
2023-05-03T06:12:47.431Z,71.38
2023-05-03T06:15:19.146Z,71.67
2023-05-03T06:17:46.570Z,71.08
2023-05-03T06:20:13.953Z,71.59
2023-05-03T06:22:42.246Z,70.95
2023-05-03T06:25:16.170Z,70.87
2023-05-03T06:27:45.865Z,68.84
2023-05-03T06:30:13.361Z,68.24
2023-05-03T06:32:42.359Z,67.19
2023-05-03T06:35:10.184Z,67.36
2023-05-03T06:37:39.035Z,67.51
2023-05-03T06:40:07.639Z,64.99
2023-05-03T06:42:36.686Z,65.04
2023-05-03T06:45:10.117Z,64.91
2023-05-03T06:47:40.204Z,65.19
2023-05-03T06:50:08.234Z,65.22
2023-05-03T06:52:35.070Z,65.64
2023-05-03T06:55:02.004Z,64.85
2023-05-03T06:57:29.020Z,64.83
2023-05-03T06:59:56.235Z,64.89
2023-05-03T07:02:23.249Z,64.57
2023-05-03T07:04:50.785Z,64.96
2023-05-03T07:07:17.653Z,65.12
2023-05-03T07:09:44.634Z,65.15
2023-05-03T07:12:12.370Z,65.01
2023-05-03T07:14:40.654Z,63.66
2023-05-03T07:17:07.737Z,62.86
2023-05-03T07:19:34.847Z,63.68
2023-05-03T07:22:03.484Z,61.54
2023-05-03T07:24:30.502Z,60.69
2023-05-03T07:26:58.437Z,58.33
2023-05-03T07:29:26.642Z,57.67
2023-05-03T07:31:54.000Z,56.78
2023-05-03T07:34:21.506Z,56.58
2023-05-03T07:36:48.646Z,55.81
2023-05-03T07:39:15.930Z,57.34
2023-05-03T07:41:42.977Z,56.85
2023-05-03T07:44:10.133Z,57.40
2023-05-03T07:46:37.042Z,55.02
2023-05-03T07:49:05.474Z,56.37
2023-05-03T07:51:39.111Z,55.89
2023-05-03T07:54:06.375Z,55.54
2023-05-03T07:56:33.769Z,54.46
2023-05-03T08:01:30.550Z,53.50
2023-05-03T08:03:58.721Z,53.04
2023-05-03T08:06:26.382Z,52.15
2023-05-03T08:08:53.446Z,51.11
2023-05-03T08:11:20.577Z,51.43
2023-05-03T08:13:47.474Z,50.19
2023-05-03T08:16:14.458Z,50.49
2023-05-03T08:18:41.720Z,49.67
2023-05-03T08:21:12.196Z,50.83
2023-05-03T08:23:39.591Z,49.00
2023-05-03T08:26:09.572Z,48.50
2023-05-03T08:28:36.399Z,49.58
2023-05-03T08:31:06.860Z,49.59
2023-05-03T08:33:33.870Z,48.46
2023-05-03T08:36:01.876Z,47.75
2023-05-03T08:38:29.037Z,48.84
2023-05-03T08:40:59.601Z,49.67
2023-05-03T08:43:29.061Z,49.11
2023-05-03T08:45:56.296Z,47.62
2023-05-03T08:48:23.402Z,46.45
2023-05-03T08:50:51.764Z,46.61
2023-05-03T08:53:18.871Z,47.79
2023-05-03T08:55:46.022Z,47.87
2023-05-03T08:58:13.606Z,48.64
2023-05-03T09:00:45.030Z,51.05
2023-05-03T09:03:13.166Z,51.46
2023-05-03T09:05:43.429Z,53.02
2023-05-03T09:08:14.785Z,50.26
2023-05-03T09:10:42.895Z,50.81
2023-05-03T09:13:10.945Z,51.47
2023-05-03T09:15:38.085Z,51.61
2023-05-03T09:18:17.822Z,51.35
2023-05-03T09:20:52.241Z,51.00
2023-05-03T09:23:32.176Z,51.19
2023-05-03T09:26:00.191Z,50.54
2023-05-03T09:28:27.853Z,51.43
2023-05-03T09:31:07.821Z,51.59
2023-05-03T09:33:34.881Z,51.22
2023-05-03T09:36:04.891Z,49.62
2023-05-03T09:38:39.310Z,48.71
2023-05-03T09:41:06.388Z,49.10
2023-05-03T09:43:35.074Z,50.85
2023-05-03T09:46:12.355Z,50.54
2023-05-03T09:48:40.780Z,49.59
2023-05-03T09:51:08.818Z,48.73
2023-05-03T09:53:37.192Z,49.24
2023-05-03T09:56:07.081Z,47.44
2023-05-03T09:58:35.348Z,47.09
2023-05-03T10:01:02.718Z,45.62
2023-05-03T10:03:35.333Z,45.97
2023-05-03T10:06:05.218Z,43.78
2023-05-03T10:08:45.501Z,43.31
2023-05-03T10:11:14.494Z,44.22
2023-05-03T10:13:41.517Z,43.86
2023-05-03T10:16:15.316Z,42.97
2023-05-03T10:18:49.619Z,43.13
2023-05-03T10:21:33.582Z,45.20
2023-05-03T10:24:14.248Z,45.80
2023-05-03T10:26:47.704Z,47.04
2023-05-03T10:29:37.340Z,46.42
2023-05-03T10:32:05.572Z,45.40
2023-05-03T10:34:39.646Z,45.17
2023-05-03T10:37:11.685Z,45.40
2023-05-03T10:39:45.374Z,46.12
2023-05-03T10:42:13.263Z,45.76
2023-05-03T10:44:41.230Z,45.91
2023-05-03T10:47:16.127Z,46.60
2023-05-03T10:49:43.395Z,45.44
2023-05-03T10:52:48.403Z,46.55
2023-05-03T10:55:21.214Z,46.54
2023-05-03T10:57:49.410Z,46.45
2023-05-03T11:00:38.741Z,46.88
2023-05-03T11:03:20.326Z,47.33
2023-05-03T11:05:51.824Z,46.46
2023-05-03T11:08:21.153Z,45.92
2023-05-03T11:10:57.634Z,46.31
2023-05-03T11:13:24.499Z,46.56
2023-05-03T11:15:56.043Z,47.45
2023-05-03T11:18:25.169Z,45.83
2023-05-03T11:20:53.820Z,45.33
2023-05-03T11:23:28.248Z,45.44
2023-05-03T11:25:57.847Z,45.74
2023-05-03T11:28:26.151Z,44.99
2023-05-03T11:30:53.271Z,45.67
2023-05-03T11:33:20.600Z,43.49
2023-05-03T11:35:47.509Z,41.71
2023-05-03T11:38:14.528Z,42.76
2023-05-03T11:40:41.807Z,42.16
2023-05-03T11:43:09.131Z,42.74
2023-05-03T11:45:45.576Z,42.57
2023-05-03T11:48:13.781Z,39.78
2023-05-03T11:50:47.812Z,40.37
2023-05-03T11:53:16.219Z,38.64
2023-05-03T11:55:46.535Z,38.96
2023-05-03T11:58:17.950Z,38.43
2023-05-03T12:00:47.296Z,37.91
2023-05-03T12:03:30.229Z,37.44
2023-05-03T12:05:58.897Z,37.33
2023-05-03T12:08:36.318Z,37.75
2023-05-03T12:11:06.860Z,37.36
2023-05-03T12:13:38.597Z,36.32
2023-05-03T12:18:48.457Z,37.71
2023-05-03T12:23:46.972Z,36.64
2023-05-03T12:26:15.119Z,36.99
2023-05-03T12:28:42.513Z,36.89
2023-05-03T12:33:38.806Z,37.08
2023-05-03T12:36:09.807Z,37.41
2023-05-03T12:38:37.826Z,36.53
2023-05-03T12:41:08.808Z,35.46
2023-05-03T12:43:36.733Z,36.23
2023-05-03T12:48:33.909Z,36.72
2023-05-03T12:51:19.359Z,36.98
2023-05-03T12:53:48.217Z,36.67
2023-05-03T12:56:15.411Z,37.38
2023-05-03T12:59:05.283Z,37.46
2023-05-03T13:04:23.885Z,35.09
2023-05-03T13:06:46.930Z,33.77
2023-05-03T13:11:48.281Z,33.27
2023-05-03T13:14:16.531Z,31.44
2023-05-03T13:16:45.698Z,32.13
2023-05-03T13:19:13.325Z,31.49
2023-05-03T13:21:40.410Z,31.03
2023-05-03T13:24:07.764Z,29.83
2023-05-03T13:26:35.562Z,30.83
2023-05-03T13:29:02.639Z,30.77
2023-05-03T13:31:30.359Z,30.94
2023-05-03T13:33:57.482Z,31.08
2023-05-03T13:36:24.743Z,31.00
2023-05-03T13:38:53.107Z,30.54
2023-05-03T13:41:20.830Z,31.21
2023-05-03T13:43:48.339Z,29.71
2023-05-03T13:46:15.409Z,30.14
2023-05-03T13:48:42.717Z,30.46
2023-05-03T13:51:14.034Z,31.40
2023-05-03T13:53:41.093Z,30.90
2023-05-03T13:56:08.543Z,31.15
2023-05-03T13:58:36.296Z,35.24
2023-05-03T14:01:03.655Z,37.48
2023-05-03T14:03:33.266Z,37.70
2023-05-03T14:06:00.528Z,38.02
2023-05-03T14:08:27.346Z,38.32
2023-05-03T14:10:54.254Z,37.64
2023-05-03T14:13:21.996Z,38.66
2023-05-03T14:15:49.205Z,38.08
2023-05-03T14:18:16.425Z,37.21
2023-05-03T14:20:43.509Z,36.77
2023-05-03T14:23:10.796Z,35.42
2023-05-03T14:25:37.723Z,35.48
2023-05-03T14:28:05.457Z,35.60
2023-05-03T14:30:33.196Z,37.00
2023-05-03T14:33:00.484Z,36.73
2023-05-03T14:35:27.475Z,36.97
2023-05-03T14:37:54.882Z,35.99
2023-05-03T14:40:22.044Z,36.99
2023-05-03T14:42:49.106Z,36.18
2023-05-03T14:45:16.069Z,36.96
2023-05-03T14:47:43.206Z,36.97
2023-05-03T14:50:10.688Z,37.40
2023-05-03T14:52:40.557Z,38.16
2023-05-03T14:55:08.034Z,38.70
2023-05-03T14:57:36.494Z,39.51
2023-05-03T15:00:06.913Z,39.40
2023-05-03T15:02:34.264Z,40.24
2023-05-03T15:05:01.498Z,40.03
2023-05-03T15:07:28.692Z,40.06
2023-05-03T15:09:55.754Z,40.56
2023-05-03T15:12:22.926Z,41.71
2023-05-03T15:14:49.905Z,42.02
2023-05-03T15:17:16.941Z,42.78
2023-05-03T15:19:43.952Z,43.54
2023-05-03T15:22:11.174Z,43.07
2023-05-03T15:24:38.006Z,43.43
2023-05-03T15:27:05.043Z,44.35
2023-05-03T15:29:32.200Z,44.07
2023-05-03T15:31:59.145Z,43.97
2023-05-03T15:34:26.241Z,43.36
2023-05-03T15:36:53.358Z,43.67
2023-05-03T15:39:20.517Z,43.47
2023-05-03T15:41:47.405Z,44.20
2023-05-03T15:44:15.071Z,45.01
2023-05-03T15:46:43.099Z,46.02
2023-05-03T15:49:12.013Z,46.40
2023-05-03T15:51:39.315Z,46.79
2023-05-03T15:54:06.399Z,47.60
2023-05-03T15:56:33.282Z,48.49
2023-05-03T15:59:00.068Z,48.26
2023-05-03T16:01:27.197Z,48.15
2023-05-03T16:03:54.226Z,48.90
2023-05-03T16:06:21.134Z,48.92
2023-05-03T16:08:47.943Z,48.74
2023-05-03T16:11:15.066Z,49.79
2023-05-03T16:13:42.112Z,49.87
2023-05-03T16:16:12.480Z,49.37
2023-05-03T16:18:39.721Z,49.92
2023-05-03T16:21:06.704Z,49.82
2023-05-03T16:23:33.507Z,50.41
2023-05-03T16:26:01.145Z,50.84
2023-05-03T16:28:28.021Z,51.22
2023-05-03T16:30:55.036Z,51.47
2023-05-03T16:33:22.454Z,51.59
2023-05-03T16:35:50.050Z,52.25
2023-05-03T16:38:17.192Z,52.07
2023-05-03T16:40:44.132Z,52.22
2023-05-03T16:43:11.454Z,52.33
2023-05-03T16:45:38.594Z,53.08
2023-05-03T16:48:08.181Z,53.62
2023-05-03T16:50:43.254Z,53.33
2023-05-03T16:53:12.039Z,54.09
2023-05-03T16:55:39.144Z,54.32
2023-05-03T16:58:06.193Z,54.50
2023-05-03T17:00:33.568Z,54.84
2023-05-03T17:03:00.698Z,55.41
2023-05-03T17:05:33.241Z,55.63
2023-05-03T17:08:03.521Z,56.21
2023-05-03T17:10:31.752Z,56.01
2023-05-03T17:13:02.035Z,56.34
2023-05-03T17:15:29.058Z,56.74
2023-05-03T17:17:56.088Z,57.05
2023-05-03T17:20:23.174Z,57.12
2023-05-03T17:22:50.232Z,57.27
2023-05-03T17:25:17.400Z,58.15
2023-05-03T17:27:44.493Z,58.17
2023-05-03T17:30:21.120Z,58.63
2023-05-03T17:32:48.569Z,58.72
2023-05-03T17:35:15.813Z,58.58
2023-05-03T17:37:42.607Z,58.36
2023-05-03T17:40:10.692Z,58.88
2023-05-03T17:42:40.932Z,59.02
2023-05-03T17:45:09.050Z,59.35
2023-05-03T17:47:35.940Z,59.57
2023-05-03T17:50:03.027Z,60.21
2023-05-03T17:52:30.125Z,60.40
2023-05-03T17:54:57.516Z,60.52
2023-05-03T17:57:24.329Z,61.06
2023-05-03T17:59:51.990Z,61.00
2023-05-03T18:02:19.110Z,61.01
2023-05-03T18:04:47.022Z,61.39
2023-05-03T18:07:14.926Z,61.98
2023-05-03T18:09:41.837Z,62.13
2023-05-03T18:12:08.779Z,62.89
2023-05-03T18:14:36.835Z,62.69
2023-05-03T18:17:03.677Z,62.70
2023-05-03T18:19:31.339Z,63.06
2023-05-03T18:21:58.453Z,63.26
2023-05-03T18:24:25.309Z,62.98
2023-05-03T18:26:52.635Z,63.27
2023-05-03T18:29:19.489Z,64.27
2023-05-03T18:31:50.423Z,64.31
2023-05-03T18:34:17.441Z,64.58
2023-05-03T18:40:43.871Z,65.80
2023-05-03T18:43:10.737Z,65.71
2023-05-03T18:45:41.017Z,65.88
2023-05-03T18:48:08.347Z,66.89
2023-05-03T18:50:36.228Z,66.84
2023-05-03T18:53:03.967Z,67.30
2023-05-03T18:55:30.879Z,67.24
2023-05-03T18:57:58.914Z,68.02
2023-05-03T19:00:26.048Z,70.34
2023-05-03T19:02:52.948Z,71.77
2023-05-03T19:05:20.251Z,74.28
2023-05-03T19:07:48.423Z,75.37
2023-05-03T19:10:17.157Z,76.71
2023-05-03T19:13:05.076Z,77.98
2023-05-03T19:15:40.730Z,78.26
2023-05-03T19:18:08.245Z,79.56
2023-05-03T19:20:35.162Z,80.56
2023-05-03T19:23:02.447Z,81.17
2023-05-03T19:25:29.256Z,81.29
2023-05-03T19:27:56.162Z,84.05
2023-05-03T19:30:23.128Z,80.73
2023-05-03T19:32:50.154Z,81.39
2023-05-03T19:35:16.977Z,83.11
2023-05-03T19:37:44.661Z,83.07
2023-05-03T19:40:12.384Z,80.89
2023-05-03T19:42:39.462Z,82.52
2023-05-03T19:45:06.643Z,82.10
2023-05-03T19:47:33.864Z,83.45
2023-05-03T19:50:00.932Z,83.28
2023-05-03T19:52:40.373Z,82.93
2023-05-03T19:55:07.777Z,84.05
2023-05-03T19:57:44.825Z,85.58
2023-05-03T20:00:14.318Z,86.73
2023-05-03T20:02:41.581Z,85.38
2023-05-03T20:05:08.853Z,84.24
2023-05-03T20:07:35.755Z,84.20
2023-05-03T20:11:03.983Z,84.26
2023-05-03T20:13:30.880Z,84.37
2023-05-03T20:15:57.888Z,85.02
2023-05-03T20:18:24.745Z,85.20
2023-05-03T20:20:51.565Z,85.80
2023-05-03T20:23:18.649Z,87.03
2023-05-03T20:25:45.587Z,87.11
2023-05-03T20:28:13.124Z,88.52
2023-05-03T20:30:40.002Z,90.94
2023-05-03T20:33:07.423Z,91.50
2023-05-03T20:35:36.399Z,93.21
2023-05-03T20:38:03.582Z,93.41
2023-05-03T20:40:30.549Z,95.68
2023-05-03T20:42:57.755Z,96.54
2023-05-03T20:45:24.565Z,97.30
2023-05-03T20:47:51.645Z,98.02
2023-05-03T20:50:18.891Z,99.56
2023-05-03T20:52:46.053Z,99.38
2023-05-03T20:55:12.842Z,100.00
2023-05-03T20:57:41.286Z,100.00
2023-05-03T21:00:11.562Z,100.00
2023-05-03T21:02:38.965Z,100.00
2023-05-03T21:05:06.464Z,100.00
2023-05-03T21:07:33.507Z,100.00
2023-05-03T21:10:00.563Z,100.00
2023-05-03T21:12:29.075Z,100.00
2023-05-03T21:14:55.907Z,100.00
2023-05-03T21:17:22.947Z,100.00
2023-05-03T21:19:49.871Z,100.00
2023-05-03T21:22:17.049Z,100.00
2023-05-03T21:24:50.959Z,100.00
2023-05-03T21:27:19.905Z,100.00
2023-05-03T21:29:46.672Z,100.00
2023-05-03T21:32:13.599Z,100.00
2023-05-03T21:34:40.545Z,100.00
2023-05-03T21:37:07.468Z,100.00
2023-05-03T21:39:34.384Z,100.00
2023-05-03T21:42:01.344Z,100.00
2023-05-03T21:44:28.258Z,100.00
2023-05-03T21:46:55.533Z,100.00
2023-05-03T21:49:22.453Z,100.00
2023-05-03T21:51:49.244Z,100.00
2023-05-03T21:54:17.326Z,100.00
2023-05-03T21:56:44.146Z,100.00
2023-05-03T21:59:11.110Z,100.00
2023-05-03T22:01:38.103Z,100.00
2023-05-03T22:04:05.795Z,100.00
2023-05-03T22:06:32.801Z,100.00
2023-05-03T22:09:00.035Z,100.00
2023-05-03T22:11:26.898Z,100.00
2023-05-03T22:14:06.758Z,100.00
2023-05-03T22:16:35.637Z,100.00
2023-05-03T22:19:02.628Z,100.00
2023-05-03T22:21:29.502Z,100.00
2023-05-03T22:23:56.425Z,100.00
2023-05-03T22:26:24.360Z,100.00
2023-05-03T22:28:52.045Z,100.00
2023-05-03T22:31:19.041Z,100.00
2023-05-03T22:33:48.874Z,100.00
2023-05-03T22:36:16.189Z,100.00
2023-05-03T22:38:43.474Z,100.00
2023-05-03T22:41:10.526Z,100.00
2023-05-03T22:43:37.651Z,100.00
2023-05-03T22:46:04.615Z,100.00
2023-05-03T22:48:32.715Z,100.00
2023-05-03T22:50:59.963Z,100.00
2023-05-03T22:53:26.765Z,100.00
2023-05-03T22:55:57.820Z,100.00
2023-05-03T22:58:25.932Z,100.00
2023-05-03T23:00:53.161Z,100.00
2023-05-03T23:03:21.561Z,100.00
2023-05-03T23:05:51.470Z,100.00
2023-05-03T23:08:18.737Z,100.00
2023-05-03T23:10:45.764Z,100.00
2023-05-03T23:13:13.157Z,100.00
2023-05-03T23:15:40.189Z,100.00
2023-05-03T23:18:07.374Z,100.00
2023-05-03T23:20:34.465Z,100.00
2023-05-03T23:23:01.264Z,100.00
2023-05-03T23:25:28.262Z,100.00
2023-05-03T23:27:55.227Z,100.00
2023-05-03T23:30:22.710Z,100.00
2023-05-03T23:32:51.540Z,100.00
2023-05-03T23:35:19.666Z,100.00
2023-05-03T23:37:46.894Z,100.00
2023-05-03T23:40:13.727Z,100.00
2023-05-03T23:42:41.425Z,100.00
2023-05-03T23:45:09.844Z,100.00
2023-05-03T23:47:37.126Z,100.00
2023-05-03T23:50:05.047Z,100.00
2023-05-03T23:52:32.349Z,100.00
2023-05-03T23:54:59.182Z,100.00
2023-05-03T23:57:26.739Z,100.00
2023-05-03T23:59:53.812Z,100.00
